• Join FlightAware (Why Join?)
  • Login
  • US Flag 
07:57AM EDT


 

Airport Tracker/Info


-or-


 

Live Flight TrackerFlight Track Log ✈ JAL401 ✈ 09-May-2013 ✈ RJAA / NRT - EGLL / LHR

Flight Track Log - Related Links

Times and Time Zones

All times are in EDT time to prevent confusion due to time zone crossing. See the JAL401 flight status page for this flight to view local times or setup timezone preferences in your user account.

Time Position Orientation Groundspeed Altitude Reporting Facility
EDT Latitude Longitude Course Direction KTS MPH feet Rate Location/Type
11:18PM 36.1024 140.2071 337° Northwest  Level Estimated
11:19PM 36.2149 140.1470 337° Northwest  Level Estimated
11:19PM 35.4600 140.5380 337° Northwest 326 375 9,000  Level FlightAware
11:19PM 35.4370 140.5150 219° Southwest 328 377 9,900 3,600 Climbing FlightAware
11:20PM 36.3274 140.0867 337° Northwest  Level Estimated
11:20PM 35.4230 140.4920 233° Southwest 324 373 10,800  Level FlightAware
11:20PM 35.4180 140.4650 257° West 325 374 10,700 1,020 Descending FlightAware
11:20PM 35.4290 140.4130 285° West 335 386 11,600 1,080 Climbing FlightAware
11:21PM 35.4540 140.3820 315° West 347 399 11,700 1,500 Climbing FlightAware
11:21PM 35.4800 140.3700 339° North 353 406 12,600 1,800 Climbing FlightAware
11:22PM 35.5440 140.3470 344° North 356 410 13,400 540 Climbing FlightAware
11:23PM 35.6140 140.3230 344° North 357 411 13,400  Level FlightAware
11:23PM 35.6800 140.3000 344° North 355 409 13,400  Level FlightAware
11:24PM 35.7510 140.2750 344° North 356 410 13,400  Level FlightAware
11:25PM 35.8110 140.2530 343° North 356 410 13,400  Level FlightAware
11:25PM 35.8650 140.2340 344° North 354 407 13,400  Level FlightAware
11:26PM 35.9420 140.2080 345° North 356 410 13,400  Level FlightAware
11:27PM 36.0070 140.1840 343° North 356 410 13,400 180 Level FlightAware
11:28PM 36.0800 140.1250 327° Northwest 366 421 13,700 960 Climbing FlightAware
11:28PM 36.1290 140.0590 313° West 368 423 15,000 1,020 Climbing FlightAware
11:29PM 36.1840 139.9840 312° West 365 420 15,200 1,440 Climbing FlightAware
11:30PM 36.2330 139.9160 312° West 365 420 17,200 2,400 Climbing FlightAware
11:30PM 36.2740 139.8600 312° West 367 422 18,400 1,920 Climbing FlightAware
11:31PM 36.3150 139.8030 312° West 375 432 19,500 1,740 Climbing FlightAware
11:32PM 36.3640 139.7370 313° West 389 448 20,600 1,560 Climbing FlightAware
11:32PM 36.4110 139.6930 323° Northwest 390 449 21,500 1,500 Climbing FlightAware
11:33PM 36.4860 139.6640 343° North 388 447 22,600 1,440 Climbing FlightAware
11:34PM 36.5710 139.6330 344° North 403 464 23,700 1,380 Climbing FlightAware
11:34PM 36.6420 139.6070 344° North 403 464 24,600 1,320 Climbing FlightAware
11:35PM 36.7270 139.5760 344° North 416 479 25,600 1,200 Climbing FlightAware
11:37PM 36.8770 139.5200 343° North 428 493 27,300 1,140 Climbing FlightAware
11:37PM 36.9590 139.4900 344° North 433 498 28,000 480 Climbing FlightAware
11:38PM 37.0350 139.4620 344° North 434 499 28,000  Level FlightAware
11:39PM 37.1260 139.4230 341° North 422 486 28,000  Level FlightAware
11:39PM 37.1850 139.3850 333° Northwest 431 496 28,000  Level FlightAware
11:40PM 37.2680 139.3230 329° Northwest 430 495 28,000  Level FlightAware
11:41PM 37.3420 139.2690 330° Northwest 430 495 28,000  Level FlightAware
11:41PM 37.4190 139.2120 330° Northwest 450 518 28,000  Level FlightAware
11:42PM 37.4700 139.1740 329° Northwest 452 520 28,000  Level FlightAware
11:43PM 37.5840 139.0900 330° Northwest 465 535 28,000  Level FlightAware
11:44PM 37.6560 139.0360 329° Northwest 466 536 28,000  Level FlightAware
11:44PM 37.7300 138.9810 330° Northwest 467 537 28,000  Level FlightAware
11:45PM 37.8140 138.9190 330° Northwest 468 539 28,000  Level FlightAware
11:46PM 37.8850 138.8660 329° Northwest 467 537 28,000  Level FlightAware
11:47PM 37.9890 138.7880 329° Northwest 467 537 28,000  Level FlightAware
11:47PM 38.0720 138.7250 329° Northwest 467 537 28,000  Level FlightAware
11:48PM 38.1310 138.6800 329° Northwest 466 536 28,000  Level FlightAware
11:49PM 38.2140 138.6180 330° Northwest 467 537 28,000  Level FlightAware
11:49PM 38.3050 138.5490 329° Northwest 467 537 28,000  Level FlightAware
11:50PM 38.3790 138.4930 329° Northwest 468 539 28,000  Level FlightAware
11:51PM 38.4560 138.4340 329° Northwest 469 540 28,000  Level FlightAware
11:51PM 38.5330 138.3750 329° Northwest 470 541 28,000  Level FlightAware
11:52PM 38.6040 138.3210 329° Northwest 470 541 28,000  Level FlightAware
11:53PM 38.6980 138.2490 329° Northwest 470 541 28,000  Level FlightAware
11:53PM 38.7490 138.2100 329° Northwest 471 542 28,000  Level FlightAware
11:54PM 38.8480 138.1330 329° Northwest 470 541 28,000  Level FlightAware
11:55PM 38.9140 138.0830 329° Northwest 471 542 28,000  Level FlightAware
11:56PM 38.9880 138.0250 329° Northwest 470 541 28,000  Level FlightAware
11:56PM 39.0730 137.9590 329° Northwest 470 541 28,000  Level FlightAware
11:57PM 39.1490 137.9010 329° Northwest 471 542 28,000  Level FlightAware
11:58PM 39.2250 137.8760 346° North 469 540 28,000  Level FlightAware
11:58PM 39.3040 137.8740 359° North 479 551 28,000  Level FlightAware
11:59PM 39.3800 137.8860 North 471 542 28,000  Level FlightAware
11:59PM 39.4590 137.8930 North 471 542 28,000  Level FlightAware
12:00AM 39.5550 137.9010 North 471 542 28,000  Level FlightAware
12:01AM 39.6740 137.9100 North 469 540 28,000  Level FlightAware
12:02AM 39.7690 137.9180 North 466 536 28,000  Level FlightAware
12:02AM 39.8450 137.9240 North 466 536 28,000  Level FlightAware
12:03AM 39.9370 137.9310 North 466 536 28,000  Level FlightAware
12:04AM 40.0110 137.9360 North 466 536 28,000  Level FlightAware
12:05AM 40.2300 137.9550 North 467 537 28,000  Level FlightAware
12:06AM 40.3270 137.9640 North 467 537 28,000  Level FlightAware
12:07AM 40.4270 137.9720 North 466 536 28,000  Level FlightAware
12:07AM 40.5130 137.9790 North 467 537 28,000  Level FlightAware
12:08AM 40.5850 137.9850 North 467 537 28,000  Level FlightAware
12:09AM 40.6850 137.9930 North 466 536 28,000  Level FlightAware
12:09AM 40.7820 138.0010 North 467 537 28,000  Level FlightAware
12:11AM 40.9650 138.0160 North 466 536 28,000  Level FlightAware
12:12AM 41.0590 138.0240 North 466 536 28,000  Level FlightAware
12:12AM 41.1520 138.0320 North 466 536 28,000 300 Level FlightAware
12:13AM 41.2510 138.0400 North 455 524 28,500 780 Climbing FlightAware
12:13AM 41.3150 138.0460 North 453 521 29,000 960 Climbing FlightAware
12:14AM 41.4200 138.0550 North 465 535 29,800 600 Climbing FlightAware
12:15AM 41.5160 138.0630 North 464 534 30,000 120 Climbing FlightAware
12:16AM 41.5870 138.0690 North 466 536 30,000  Level FlightAware
12:16AM 41.6930 138.0780 North 467 537 30,000  Level FlightAware
12:17AM 41.7830 138.0860 North 467 537 30,000  Level FlightAware
12:18AM 41.8730 138.0930 North 466 536 30,000  Level FlightAware
12:19AM 41.9590 138.1010 North 466 536 30,000  Level FlightAware
12:19AM 42.0500 138.1090 North 465 535 30,000  Level FlightAware
12:20AM 42.1610 138.1180 North 467 537 30,000  Level FlightAware
12:21AM 42.2790 138.1290 North 468 539 30,000  Level FlightAware
12:21AM 42.3380 138.1340 North 468 539 30,000  Level FlightAware
12:22AM 42.4080 138.1390 North 468 539 30,000  Level FlightAware
12:23AM 42.5140 138.1490 North 467 537 30,000  Level FlightAware
12:23AM 42.6030 138.1570 North 466 536 30,000  Level FlightAware
12:24AM 42.6750 138.1630 North 466 536 30,000  Level FlightAware
12:25AM 42.7650 138.1700 North 466 536 30,000  Level FlightAware
12:26AM 42.8380 138.1750 North 466 536 30,000  Level FlightAware
12:26AM 42.9110 138.1800 North 466 536 30,000  Level FlightAware
12:27AM 43.0020 138.1870 North 466 536 30,000  Level FlightAware
12:28AM 43.0760 138.1920 North 466 536 30,000  Level FlightAware
12:28AM 43.1490 138.1970 North 466 536 30,000  Level FlightAware
12:29AM 43.2220 138.2030 North 466 536 30,000  Level FlightAware
12:30AM 43.2950 138.2080 North 466 536 30,000  Level FlightAware
12:31AM 43.3870 138.2140 North 466 536 30,000  Level FlightAware
12:31AM 43.4600 138.2200 North 466 536 30,000  Level FlightAware
12:34AM 43.7135 138.0578 335° Northwest  Level Estimated
12:35AM 43.8237 137.9868 335° Northwest  Level Estimated
12:36AM 43.9338 137.9156 335° Northwest  Level Estimated
12:37AM 44.0438 137.8442 335° Northwest  Level Estimated
12:38AM 44.1539 137.7724 335° Northwest  Level Estimated
12:39AM 44.2638 137.7004 335° Northwest  Level Estimated
12:40AM 44.3738 137.6281 335° Northwest  Level Estimated
12:41AM 44.4836 137.5556 335° Northwest  Level Estimated
12:42AM 44.5935 137.4828 335° Northwest  Level Estimated
12:43AM 44.7033 137.4097 335° Northwest  Level Estimated
12:44AM 44.8130 137.3363 335° Northwest  Level Estimated
12:45AM 44.9227 137.2626 335° Northwest  Level Estimated
12:46AM 45.0324 137.1887 335° Northwest  Level Estimated
12:47AM 45.1420 137.1145 334° Northwest  Level Estimated
12:48AM 45.2515 137.0400 334° Northwest  Level Estimated
12:49AM 45.3610 136.9652 334° Northwest  Level Estimated
12:50AM 45.4705 136.8901 334° Northwest  Level Estimated
12:51AM 45.5799 136.8147 334° Northwest  Level Estimated
12:52AM 45.6892 136.7390 334° Northwest  Level Estimated
12:52AM 46.3090 138.0820 334° Northwest 463 533 30,000  Level FlightAware
12:53AM 45.7985 136.6631 334° Northwest  Level Estimated
12:53AM 46.3850 138.0770 357° North 462 532 30,000  Level FlightAware
12:54AM 46.4570 138.0720 357° North 462 532 30,000  Level FlightAware
12:55AM 46.5660 138.0460 351° North 454 522 30,000  Level FlightAware
12:55AM 46.6760 137.9930 342° North 454 522 30,000  Level FlightAware
12:56AM 46.7620 137.9510 342° North 451 519 30,000  Level FlightAware
12:57AM 46.8390 137.9130 341° North 450 518 30,000  Level FlightAware
12:58AM 46.9220 137.8720 341° North 448 516 30,000  Level FlightAware
12:58AM 47.0010 137.8330 341° North 448 516 30,000  Level FlightAware
12:59AM 47.0810 137.7940 342° North 447 514 30,000  Level FlightAware
01:00AM 47.1750 137.7480 342° North 448 516 30,000  Level FlightAware
01:00AM 47.2590 137.7060 341° North 448 516 30,000  Level FlightAware
01:01AM 47.3370 137.6670 341° North 447 514 30,000  Level FlightAware
01:02AM 47.4210 137.6250 341° North 447 514 30,000  Level FlightAware
01:03AM 47.4990 137.5860 341° North 447 514 30,000  Level FlightAware
01:03AM 47.5890 137.5410 341° North 447 514 30,000  Level FlightAware
01:04AM 47.6720 137.4990 341° North 448 516 30,000  Level FlightAware
01:05AM 47.7540 137.4570 341° North 448 516 30,000  Level FlightAware
01:05AM 47.8350 137.4170 342° North 448 516 30,000  Level FlightAware
01:06AM 47.9050 137.3810 341° North 449 517 30,000  Level FlightAware
01:07AM 47.9850 137.3400 341° North 448 516 30,000  Level FlightAware
01:07AM 48.0770 137.2930 341° North 447 514 30,000  Level FlightAware
01:08AM 48.1680 137.2460 341° North 448 516 30,000  Level FlightAware
01:09AM 48.2690 137.1930 341° North 448 516 30,000  Level FlightAware
01:10AM 48.3380 137.1580 341° North 449 517 30,000  Level FlightAware
01:10AM 48.4370 137.1070 341° North 450 518 30,000  Level FlightAware
01:11AM 48.5090 137.0700 341° North 451 519 30,000  Level FlightAware
01:12AM 48.5920 137.0260 341° North 452 520 30,000  Level FlightAware
01:13AM 48.6850 136.9780 341° North 451 519 30,000  Level FlightAware
01:13AM 48.7550 136.9410 341° North 453 521 30,000  Level FlightAware
01:14AM 48.8550 136.8880 341° North 453 521 30,000  Level FlightAware
01:15AM 48.9190 136.8530 340° North 454 522 30,000  Level FlightAware
01:15AM 49.0100 136.8050 341° North 454 522 30,000  Level FlightAware
01:16AM 49.1030 136.7540 340° North 455 524 30,000  Level FlightAware
01:17AM 49.1770 136.7140 341° North 454 522 30,000  Level FlightAware
01:17AM 49.2660 136.6650 340° North 454 522 30,000  Level FlightAware
01:18AM 49.3720 136.6070 340° North 454 522 30,000  Level FlightAware
01:19AM 49.4520 136.5580 338° Northwest 451 519 30,000  Level FlightAware
01:20AM 49.5380 136.4850 331° Northwest 448 516 30,000  Level FlightAware
01:21AM 49.6540 136.3780 329° Northwest 446 513 30,000  Level FlightAware
01:22AM 49.7250 136.3090 328° Northwest 447 514 30,000  Level FlightAware
01:22AM 49.7870 136.2490 328° Northwest 447 514 30,000  Level FlightAware
01:23AM 49.8780 136.1620 328° Northwest 445 512 30,000  Level FlightAware
01:24AM 49.9670 136.0760 328° Northwest 445 512 30,000  Level FlightAware
01:25AM 50.0430 136.0030 328° Northwest 447 514 30,000  Level FlightAware
01:25AM 50.1160 135.9320 328° Northwest 447 514 30,000  Level FlightAware
01:26AM 50.1780 135.8710 328° Northwest 446 513 30,000  Level FlightAware
01:27AM 50.2690 135.7810 328° Northwest 445 512 30,000  Level FlightAware
01:27AM 50.3130 135.7380 328° Northwest 446 513 30,000  Level FlightAware
01:28AM 50.4050 135.6480 328° Northwest 447 514 30,000  Level FlightAware
01:29AM 50.4860 135.5670 328° Northwest 447 514 30,000  Level FlightAware
01:29AM 50.5480 135.5050 328° Northwest 447 514 30,000  Level FlightAware
01:30AM 50.6100 135.4430 328° Northwest 449 517 30,000  Level FlightAware
01:31AM 50.6810 135.3720 328° Northwest 448 516 30,000  Level FlightAware
01:32AM 50.7720 135.2810 328° Northwest 449 517 30,000  Level FlightAware
01:32AM 50.8440 135.2080 327° Northwest 448 516 30,000  Level FlightAware
01:33AM 50.9290 135.1220 327° Northwest 449 517 30,000  Level FlightAware
01:34AM 51.0020 135.0510 329° Northwest 450 518 30,000  Level FlightAware
01:34AM 51.0710 134.9830 328° Northwest 450 518 30,000  Level FlightAware
01:35AM 51.1360 134.9180 328° Northwest 451 519 30,000  Level FlightAware
01:36AM 51.2090 134.8460 328° Northwest 451 519 30,000  Level FlightAware
01:37AM 51.2900 134.7640 328° Northwest 451 519 30,000  Level FlightAware
01:37AM 51.3600 134.6910 327° Northwest 451 519 30,000  Level FlightAware
01:38AM 51.4640 134.5880 328° Northwest 451 519 30,000  Level FlightAware
01:39AM 51.5240 134.5260 327° Northwest 451 519 30,000  Level FlightAware
01:40AM 51.5830 134.4640 327° Northwest 451 519 30,000  Level FlightAware
01:40AM 51.6430 134.4020 327° Northwest 451 519 30,000  Level FlightAware
01:41AM 51.7170 134.3240 327° Northwest 451 519 30,000  Level FlightAware
01:42AM 51.7770 134.2610 327° Northwest 451 519 30,000  Level FlightAware
01:44AM 51.9700 134.0935 332° Northwest  Level Estimated
01:45AM 52.0772 133.9998 332° Northwest  Level Estimated
01:46AM 52.1842 133.9057 332° Northwest  Level Estimated
01:47AM 52.2912 133.8111 332° Northwest  Level Estimated
01:48AM 52.3981 133.7161 332° Northwest  Level Estimated
01:49AM 52.5050 133.6206 331° Northwest  Level Estimated
01:50AM 52.6117 133.5246 331° Northwest  Level Estimated
01:51AM 52.7184 133.4282 331° Northwest  Level Estimated
01:52AM 52.8250 133.3313 331° Northwest  Level Estimated
01:53AM 52.9315 133.2339 331° Northwest  Level Estimated
01:54AM 53.0380 133.1361 331° Northwest  Level Estimated
01:55AM 53.1443 133.0377 331° Northwest  Level Estimated
01:56AM 53.2506 132.9389 331° Northwest  Level Estimated
01:57AM 53.3568 132.8396 331° Northwest  Level Estimated
01:58AM 53.4629 132.7398 331° Northwest  Level Estimated
01:59AM 53.5689 132.6395 331° Northwest  Level Estimated
02:00AM 53.6749 132.5386 331° Northwest  Level Estimated
02:01AM 53.7807 132.4373 331° Northwest  Level Estimated
02:02AM 53.8865 132.3355 330° Northwest  Level Estimated
02:03AM 53.9922 132.2331 330° Northwest  Level Estimated
02:04AM 54.0978 132.1302 330° Northwest  Level Estimated
02:05AM 54.2033 132.0268 330° Northwest  Level Estimated
02:06AM 54.3087 131.9229 330° Northwest  Level Estimated
02:07AM 54.4141 131.8184 330° Northwest  Level Estimated
02:08AM 54.5193 131.7134 330° Northwest  Level Estimated
02:09AM 54.6245 131.6078 330° Northwest  Level Estimated
02:10AM 54.7295 131.5017 330° Northwest  Level Estimated
02:11AM 54.8345 131.3951 330° Northwest  Level Estimated
02:12AM 54.9394 131.2879 330° Northwest  Level Estimated
02:13AM 55.0441 131.1801 330° Northwest  Level Estimated
02:14AM 55.1488 131.0718 329° Northwest  Level Estimated
02:15AM 55.2534 130.9629 329° Northwest  Level Estimated
02:16AM 55.3579 130.8534 329° Northwest  Level Estimated
02:17AM 55.4623 130.7434 329° Northwest  Level Estimated
02:18AM 55.5666 130.6327 329° Northwest  Level Estimated
02:19AM 55.6707 130.5215 329° Northwest  Level Estimated
02:20AM 55.7750 130.4095 329° Northwest  Level Estimated
02:21AM 55.8791 130.2970 329° Northwest  Level Estimated
02:22AM 55.9832 130.1838 329° Northwest  Level Estimated
02:23AM 56.0871 130.0700 329° Northwest  Level Estimated
02:24AM 56.1909 129.9556 328° Northwest  Level Estimated
02:25AM 56.2946 129.8405 328° Northwest  Level Estimated
02:26AM 56.3982 129.7249 328° Northwest  Level Estimated
02:27AM 56.5017 129.6086 328° Northwest  Level Estimated
02:28AM 56.6051 129.4917 328° Northwest  Level Estimated
02:29AM 56.7084 129.3741 328° Northwest  Level Estimated
02:30AM 56.8116 129.2559 328° Northwest  Level Estimated
02:31AM 56.9146 129.1371 328° Northwest  Level Estimated
02:32AM 57.0176 129.0175 328° Northwest  Level Estimated
02:33AM 57.1204 128.8974 328° Northwest  Level Estimated
02:34AM 57.2231 128.7765 328° Northwest  Level Estimated
02:35AM 57.3257 128.6550 327° Northwest  Level Estimated
02:36AM 57.4282 128.5328 327° Northwest  Level Estimated
02:37AM 57.5305 128.4099 327° Northwest  Level Estimated
02:38AM 57.6328 128.2863 327° Northwest  Level Estimated
02:39AM 57.7349 128.1620 327° Northwest  Level Estimated
02:40AM 57.8369 128.0370 327° Northwest  Level Estimated
02:41AM 57.9388 127.9113 327° Northwest  Level Estimated
02:42AM 58.0407 127.7848 327° Northwest  Level Estimated
02:43AM 58.1424 127.6574 327° Northwest  Level Estimated
02:44AM 58.2441 127.5294 326° Northwest  Level Estimated
02:45AM 58.3456 127.4006 326° Northwest  Level Estimated
02:46AM 58.4469 127.2711 326° Northwest  Level Estimated
02:47AM 58.5482 127.1408 326° Northwest  Level Estimated
02:48AM 58.6493 127.0098 326° Northwest  Level Estimated
02:49AM 58.7503 126.8780 326° Northwest  Level Estimated
02:50AM 58.8511 126.7455 326° Northwest  Level Estimated
02:51AM 58.9518 126.6122 326° Northwest  Level Estimated
02:52AM 59.0524 126.4781 326° Northwest  Level Estimated
02:53AM 59.1528 126.3432 325° Northwest  Level Estimated
02:54AM 59.2531 126.2075 325° Northwest  Level Estimated
02:55AM 59.3533 126.0710 325° Northwest  Level Estimated
02:56AM 59.4533 125.9337 325° Northwest  Level Estimated
02:57AM 59.5532 125.7956 325° Northwest  Level Estimated
02:58AM 59.6529 125.6567 325° Northwest  Level Estimated
02:59AM 59.7524 125.5170 325° Northwest  Level Estimated
03:00AM 59.8518 125.3764 325° Northwest  Level Estimated
03:01AM 59.9511 125.2349 325° Northwest  Level Estimated
03:02AM 60.0502 125.0927 324° Northwest  Level Estimated
03:03AM 60.1492 124.9495 324° Northwest  Level Estimated
03:04AM 60.2480 124.8055 324° Northwest  Level Estimated
03:05AM 60.3466 124.6607 324° Northwest  Level Estimated
03:06AM 60.4451 124.5149 324° Northwest  Level Estimated
03:07AM 60.5435 124.3683 324° Northwest  Level Estimated
03:08AM 60.6416 124.2207 324° Northwest  Level Estimated
03:09AM 60.7396 124.0723 324° Northwest  Level Estimated
03:10AM 60.8375 123.9230 323° Northwest  Level Estimated
03:11AM 60.9352 123.7727 323° Northwest  Level Estimated
03:12AM 61.0326 123.6216 323° Northwest  Level Estimated
03:13AM 61.1300 123.4695 323° Northwest  Level Estimated
03:14AM 61.2271 123.3164 323° Northwest  Level Estimated
03:15AM 61.3241 123.1624 323° Northwest  Level Estimated
03:16AM 61.4209 123.0075 323° Northwest  Level Estimated
03:17AM 61.5176 122.8516 322° Northwest  Level Estimated
03:18AM 61.6140 122.6947 322° Northwest  Level Estimated
03:19AM 61.7103 122.5368 322° Northwest  Level Estimated
03:20AM 61.8064 122.3780 322° Northwest  Level Estimated
03:21AM 61.9023 122.2181 322° Northwest  Level Estimated
03:22AM 61.9980 122.0573 322° Northwest  Level Estimated
03:23AM 62.0936 121.8954 322° Northwest  Level Estimated
03:24AM 62.1892 121.7321 321° Northwest  Level Estimated
03:25AM 62.2846 121.5677 321° Northwest  Level Estimated
03:26AM 62.3798 121.4023 321° Northwest  Level Estimated
03:27AM 62.4749 121.2358 321° Northwest  Level Estimated
03:28AM 62.5697 121.0682 321° Northwest  Level Estimated
03:29AM 62.6643 120.8996 321° Northwest  Level Estimated
03:30AM 62.7588 120.7299 321° Northwest  Level Estimated
03:31AM 62.8530 120.5591 320° Northwest  Level Estimated
03:32AM 62.9470 120.3873 320° Northwest  Level Estimated
03:33AM 63.0408 120.2143 320° Northwest  Level Estimated
03:34AM 63.1344 120.0402 320° Northwest  Level Estimated
03:35AM 63.2277 119.8649 320° Northwest  Level Estimated
03:36AM 63.3209 119.6886 320° Northwest  Level Estimated
03:37AM 63.4138 119.5111 320° Northwest  Level Estimated
03:38AM 63.5066 119.3324 319° Northwest  Level Estimated
03:39AM 63.5991 119.1526 319° Northwest  Level Estimated
03:40AM 63.6913 118.9716 319° Northwest  Level Estimated
03:41AM 63.7835 118.7891 319° Northwest  Level Estimated
03:42AM 63.8754 118.6055 319° Northwest  Level Estimated
03:43AM 63.9671 118.4207 319° Northwest  Level Estimated
03:44AM 64.0586 118.2346 318° Northwest  Level Estimated
03:45AM 64.1498 118.0474 318° Northwest  Level Estimated
03:46AM 64.2408 117.8589 318° Northwest  Level Estimated
03:47AM 64.3316 117.6691 318° Northwest  Level Estimated
03:48AM 64.4220 117.4781 318° Northwest  Level Estimated
03:49AM 64.5123 117.2859 318° Northwest  Level Estimated
03:50AM 64.6023 117.0923 317° Northwest  Level Estimated
03:51AM 64.6920 116.8975 317° Northwest  Level Estimated
03:52AM 64.7815 116.7014 317° Northwest  Level Estimated
03:53AM 64.8707 116.5040 317° Northwest  Level Estimated
03:54AM 64.9597 116.3052 317° Northwest  Level Estimated
03:55AM 65.0483 116.1052 316° Northwest  Level Estimated
03:56AM 65.1368 115.9038 316° Northwest  Level Estimated
03:57AM 65.2249 115.7011 316° Northwest  Level Estimated
03:58AM 65.3128 115.4970 316° Northwest  Level Estimated
03:59AM 65.4004 115.2915 316° Northwest  Level Estimated
04:00AM 65.4877 115.0847 316° Northwest  Level Estimated
04:01AM 65.5747 114.8765 315° West  Level Estimated
04:02AM 65.6615 114.6669 315° West  Level Estimated
04:03AM 65.7479 114.4559 315° West  Level Estimated
04:04AM 65.8341 114.2435 315° West  Level Estimated
04:05AM 65.9199 114.0296 315° West  Level Estimated
04:06AM 66.0055 113.8143 314° West  Level Estimated
04:07AM 66.0908 113.5976 314° West  Level Estimated
04:08AM 66.1757 113.3794 314° West  Level Estimated
04:09AM 66.2604 113.1598 314° West  Level Estimated
04:10AM 66.3447 112.9386 314° West  Level Estimated
04:11AM 66.4287 112.7160 313° West  Level Estimated
04:12AM 66.5124 112.4919 313° West  Level Estimated
04:13AM 66.5958 112.2663 313° West  Level Estimated
04:14AM 66.6789 112.0391 313° West  Level Estimated
04:15AM 66.7616 111.8104 313° West  Level Estimated
04:16AM 66.8440 111.5802 312° West  Level Estimated
04:17AM 66.9260 111.3484 312° West  Level Estimated
04:18AM 67.0077 111.1151 312° West  Level Estimated
04:19AM 67.0891 110.8802 312° West  Level Estimated
04:20AM 67.1701 110.6437 312° West  Level Estimated
04:21AM 67.2508 110.4057 311° West  Level Estimated
04:22AM 67.3311 110.1660 311° West  Level Estimated
04:23AM 67.4110 109.9247 311° West  Level Estimated
04:24AM 67.4906 109.6818 311° West  Level Estimated
04:25AM 67.5699 109.4373 310° West  Level Estimated
04:26AM 67.6487 109.1911 310° West  Level Estimated
04:27AM 67.7272 108.9433 310° West  Level Estimated
04:28AM 67.8053 108.6938 310° West  Level Estimated
04:29AM 67.8830 108.4427 309° West  Level Estimated
04:30AM 67.9604 108.1898 309° West  Level Estimated
04:31AM 68.0373 107.9353 309° West  Level Estimated
04:32AM 68.1138 107.6791 309° West  Level Estimated
04:33AM 68.1900 107.4212 309° West  Level Estimated
04:34AM 68.2657 107.1616 308° West  Level Estimated
04:35AM 68.3411 106.9002 308° West  Level Estimated
04:36AM 68.4160 106.6371 308° West  Level Estimated
04:37AM 68.4905 106.3723 308° West  Level Estimated
04:38AM 68.5646 106.1057 307° West  Level Estimated
04:39AM 68.6383 105.8374 307° West  Level Estimated
04:40AM 68.7115 105.5673 307° West  Level Estimated
04:41AM 68.7843 105.2954 307° West  Level Estimated
04:42AM 68.8567 105.0218 306° West  Level Estimated
04:43AM 68.9286 104.7463 306° West  Level Estimated
04:44AM 69.0002 104.4687 306° West  Level Estimated
04:45AM 69.0713 104.1892 306° West  Level Estimated
04:46AM 69.1420 103.9080 305° West  Level Estimated
04:47AM 69.2122 103.6249 305° West  Level Estimated
04:48AM 69.2819 103.3400 305° West  Level Estimated
04:49AM 69.3512 103.0533 305° West  Level Estimated
04:50AM 69.4200 102.7647 304° West  Level Estimated
04:51AM 69.4883 102.4743 304° West  Level Estimated
04:52AM 69.5561 102.1821 304° West  Level Estimated
04:53AM 69.6234 101.8879 303° West  Level Estimated
04:54AM 69.6902 101.5919 303° West  Level Estimated
04:55AM 69.7566 101.2941 303° West  Level Estimated
04:56AM 69.8222 100.9952 303° West  Level Estimated
04:57AM 69.8874 100.6945 302° West  Level Estimated
04:58AM 69.9520 100.3919 302° West  Level Estimated
04:59AM 70.0161 100.0875 302° West  Level Estimated
05:00AM 70.0797 99.7812 301° West  Level Estimated
05:01AM 70.1427 99.4730 301° West  Level Estimated
05:02AM 70.2052 99.1629 301° West  Level Estimated
05:03AM 70.2672 98.8509 301° West  Level Estimated
05:04AM 70.3286 98.5371 300° West  Level Estimated
05:05AM 70.3895 98.2214 300° West  Level Estimated
05:06AM 70.4499 97.9038 300° West  Level Estimated
05:07AM 70.5097 97.5843 299° West  Level Estimated
05:08AM 70.5689 97.2630 299° West  Level Estimated
05:09AM 70.6275 96.9397 299° West  Level Estimated
05:10AM 70.6856 96.6146 298° West  Level Estimated
05:11AM 70.7431 96.2876 298° West  Level Estimated
05:12AM 70.8000 95.9588 298° West  Level Estimated
05:13AM 70.8563 95.6281 298° West  Level Estimated
05:14AM 70.9120 95.2954 297° West  Level Estimated
05:15AM 70.9671 94.9610 297° West  Level Estimated
05:16AM 71.0217 94.6246 297° West  Level Estimated
05:17AM 71.0756 94.2865 296° West  Level Estimated
05:18AM 71.1289 93.9464 296° West  Level Estimated
05:19AM 71.1815 93.6046 296° West  Level Estimated
05:20AM 71.2336 93.2608 295° West  Level Estimated
05:21AM 71.2850 92.9153 295° West  Level Estimated
05:22AM 71.3358 92.5679 295° West  Level Estimated
05:23AM 71.3859 92.2187 294° West  Level Estimated
05:24AM 71.4354 91.8677 294° West  Level Estimated
05:25AM 71.4842 91.5149 294° West  Level Estimated
05:26AM 71.5324 91.1604 293° West  Level Estimated
05:27AM 71.5799 90.8040 293° West  Level Estimated
05:28AM 71.6268 90.4459 293° West  Level Estimated
05:29AM 71.6729 90.0860 292° West  Level Estimated
05:30AM 71.7184 89.7244 292° West  Level Estimated
05:31AM 71.7633 89.3610 292° West  Level Estimated
05:32AM 71.8074 88.9959 291° West  Level Estimated
05:33AM 71.8508 88.6292 291° West  Level Estimated
05:34AM 71.8935 88.2607 291° West  Level Estimated
05:35AM 71.9356 87.8906 290° West  Level Estimated
05:36AM 71.9769 87.5188 290° West  Level Estimated
05:37AM 72.0175 87.1454 290° West  Level Estimated
05:38AM 72.0574 86.7703 289° West  Level Estimated
05:39AM 72.0966 86.3937 289° West  Level Estimated
05:40AM 72.1350 86.0155 288° West  Level Estimated
05:41AM 72.1727 85.6357 288° West  Level Estimated
05:42AM 72.2097 85.2544 288° West  Level Estimated
05:43AM 72.2459 84.8721 287° West  Level Estimated
05:44AM 72.2813 84.4883 287° West  Level Estimated
05:45AM 72.3160 84.1030 287° West  Level Estimated
05:46AM 72.3499 83.7162 286° West  Level Estimated
05:47AM 72.3831 83.3281 286° West  Level Estimated
05:48AM 72.4155 82.9386 286° West  Level Estimated
05:49AM 72.4472 82.5476 285° West  Level Estimated
05:50AM 72.4781 82.1553 285° West  Level Estimated
05:51AM 72.5082 81.7617 284° West  Level Estimated
05:52AM 72.5375 81.3668 284° West  Level Estimated
05:53AM 72.5660 80.9706 284° West  Level Estimated
05:54AM 72.5938 80.5732 283° West  Level Estimated
05:55AM 72.6208 80.1746 283° West  Level Estimated
05:56AM 72.6470 79.7748 283° West  Level Estimated
05:57AM 72.6724 79.3738 282° West  Level Estimated
05:58AM 72.6970 78.9717 282° West  Level Estimated
05:59AM 72.7207 78.5685 281° West  Level Estimated
06:00AM 72.7437 78.1643 281° West  Level Estimated
06:01AM 72.7659 77.7590 281° West  Level Estimated
06:02AM 72.7872 77.3528 280° West  Level Estimated
06:03AM 72.8078 76.9455 280° West  Level Estimated
06:04AM 72.8275 76.5368 279° West  Level Estimated
06:05AM 72.8464 76.1272 279° West  Level Estimated
06:06AM 72.8645 75.7167 279° West  Level Estimated
06:07AM 72.8818 75.3054 278° West  Level Estimated
06:08AM 72.8982 74.8933 278° West  Level Estimated
06:09AM 72.9138 74.4805 278° West  Level Estimated
06:10AM 72.9286 74.0669 277° West  Level Estimated
06:11AM 72.9425 73.6527 277° West  Level Estimated
06:12AM 72.9556 73.2379 276° West  Level Estimated
06:13AM 72.9678 72.8224 276° West  Level Estimated
06:14AM 72.9792 72.4064 276° West  Level Estimated
06:15AM 72.9897 71.9904 275° West  Level Estimated
06:16AM 72.9994 71.5740 275° West  Level Estimated
06:17AM 73.0083 71.1571 274° West  Level Estimated
06:18AM 73.0163 70.7399 274° West  Level Estimated
06:19AM 73.0234 70.3222 274° West  Level Estimated
06:20AM 73.0297 69.9043 273° West  Level Estimated
06:21AM 73.0351 69.4861 273° West  Level Estimated
06:22AM 73.0397 69.0676 272° West  Level Estimated
06:23AM 73.0434 68.6489 272° West  Level Estimated
06:24AM 73.0463 68.2301 272° West  Level Estimated
06:25AM 73.0483 67.8111 271° West  Level Estimated
06:26AM 73.0495 67.3921 271° West  Level Estimated
06:27AM 73.0498 66.9731 270° West  Level Estimated
06:28AM 73.0493 66.5540 270° West  Level Estimated
06:29AM 73.0479 66.1350 270° West  Level Estimated
06:30AM 73.0456 65.7161 269° West  Level Estimated
06:31AM 73.0425 65.2973 269° West  Level Estimated
06:32AM 73.0386 64.8787 268° West  Level Estimated
06:33AM 73.0338 64.4603 268° West  Level Estimated
06:34AM 73.0281 64.0421 268° West  Level Estimated
06:35AM 73.0216 63.6242 267° West  Level Estimated
06:36AM 73.0143 63.2067 267° West  Level Estimated
06:37AM 73.0060 62.7895 266° West  Level Estimated
06:38AM 72.9970 62.3727 266° West  Level Estimated
06:39AM 72.9871 61.9564 266° West  Level Estimated
06:40AM 72.9763 61.5406 265° West  Level Estimated
06:41AM 72.9647 61.1253 265° West  Level Estimated
06:42AM 72.9523 60.7106 264° West  Level Estimated
06:43AM 72.9390 60.2965 264° West  Level Estimated
06:44AM 72.9249 59.8830 264° West  Level Estimated
06:45AM 72.9099 59.4703 263° West  Level Estimated
06:46AM 72.8941 59.0582 263° West  Level Estimated
06:47AM 72.8775 58.6469 262° West  Level Estimated
06:48AM 72.8601 58.2364 262° West  Level Estimated
06:49AM 72.8418 57.8267 262° West  Level Estimated
06:50AM 72.8227 57.4179 261° West  Level Estimated
06:51AM 72.8028 57.0100 261° West  Level Estimated
06:52AM 72.7820 56.6030 260° West  Level Estimated
06:53AM 72.7605 56.1969 260° West  Level Estimated
06:54AM 72.7381 55.7919 260° West  Level Estimated
06:55AM 72.7149 55.3880 259° West  Level Estimated
06:56AM 72.6909 54.9850 259° West  Level Estimated
06:57AM 72.6662 54.5832 258° West  Level Estimated
06:58AM 72.6406 54.1825 258° West  Level Estimated
06:59AM 72.6142 53.7830 258° West  Level Estimated
07:00AM 72.5870 53.3847 257° West  Level Estimated
07:01AM 72.5591 52.9876 257° West  Level Estimated
07:02AM 72.5303 52.5917 257° West  Level Estimated
07:03AM 72.5008 52.1971 256° West  Level Estimated
07:04AM 72.4705 51.8038 256° West  Level Estimated
07:05AM 72.4394 51.4119 255° West  Level Estimated
07:06AM 72.4076 51.0213 255° West  Level Estimated
07:07AM 72.3750 50.6321 255° West  Level Estimated
07:08AM 72.3416 50.2443 254° West  Level Estimated
07:09AM 72.3075 49.8579 254° West  Level Estimated
07:10AM 72.2726 49.4730 254° West  Level Estimated
07:11AM 72.2370 49.0896 253° West  Level Estimated
07:12AM 72.2006 48.7076 253° West  Level Estimated
07:13AM 72.1635 48.3272 253° West  Level Estimated
07:14AM 72.1257 47.9484 252° West  Level Estimated
07:15AM 72.0871 47.5710 252° West  Level Estimated
07:16AM 72.0478 47.1953 251° West  Level Estimated
07:17AM 72.0078 46.8212 251° West  Level Estimated
07:18AM 71.9671 46.4487 251° West  Level Estimated
07:19AM 71.9257 46.0779 250° West  Level Estimated
07:20AM 71.8835 45.7086 250° West  Level Estimated
07:21AM 71.8407 45.3411 250° West  Level Estimated
07:22AM 71.7972 44.9752 249° West  Level Estimated
07:23AM 71.7529 44.6111 249° West  Level Estimated
07:24AM 71.7080 44.2486 249° West  Level Estimated
07:25AM 71.6624 43.8879 248° West  Level Estimated
07:26AM 71.6162 43.5290 248° West  Level Estimated
07:26AM 67.2640 40.7720 248° West 450 518 35,000  Level FlightAware
07:27AM 71.5693 43.1717 248° West  Level Estimated
07:27AM 67.2350 40.5850 248° West 449 517 35,000  Level FlightAware
07:27AM 67.1950 40.3430 247° West 449 517 35,000  Level FlightAware
07:28AM 67.1950 40.3430 247° West 450 518 35,000  Level FlightAware
07:29AM 67.1680 40.1750 248° West 450 518 35,000  Level FlightAware
07:29AM 67.1400 40.0070 247° West 450 518 35,000  Level FlightAware
07:30AM 67.1120 39.8390 247° West 450 518 35,000  Level FlightAware
07:31AM 67.0780 39.6300 247° West 450 518 35,000  Level FlightAware
07:32AM 67.0500 39.4630 247° West 450 518 35,000  Level FlightAware
07:32AM 67.0220 39.2960 247° West 450 518 35,000  Level FlightAware
07:33AM 66.9950 39.1290 248° West 450 518 35,000  Level FlightAware
07:34AM 66.9600 38.9210 247° West 450 518 35,000  Level FlightAware
07:34AM 66.9330 38.7550 248° West 450 518 35,000  Level FlightAware
07:35AM 66.9050 38.5880 247° West 450 518 35,000  Level FlightAware
07:36AM 66.8770 38.4220 247° West 450 518 35,000  Level FlightAware
07:36AM 66.8490 38.2570 247° West 450 518 35,000  Level FlightAware
07:37AM 66.8150 38.0500 247° West 450 518 35,000  Level FlightAware
07:40AM 66.7182 37.3813 250° West  Level Estimated
07:41AM 66.6752 37.0922 250° West  Level Estimated
07:42AM 66.6317 36.8041 249° West  Level Estimated
07:43AM 66.5877 36.5170 249° West  Level Estimated
07:44AM 66.5431 36.2310 249° West  Level Estimated
07:45AM 66.4981 35.9459 248° West  Level Estimated
07:46AM 66.4525 35.6620 248° West  Level Estimated
07:47AM 66.4064 35.3790 248° West  Level Estimated
07:48AM 66.3598 35.0971 248° West  Level Estimated
07:49AM 66.3127 34.8163 247° West  Level Estimated
07:50AM 66.2650 34.5365 247° West  Level Estimated
07:51AM 66.2169 34.2578 247° West  Level Estimated
07:52AM 66.1682 33.9793 247° West  Level Estimated
07:53AM 66.1189 33.7019 246° West  Level Estimated
07:54AM 66.0691 33.4257 246° West  Level Estimated
07:55AM 66.0189 33.1504 246° West  Level Estimated
07:56AM 65.9682 32.8763 246° West  Level Estimated
07:57AM 65.9169 32.6033 245° Southwest  Level Estimated
07:58AM 65.8652 32.3314 245° Southwest  Level Estimated
07:59AM 65.8131 32.0605 245° Southwest  Level Estimated
08:00AM 65.7604 31.7908 245° Southwest  Level Estimated
08:01AM 65.7073 31.5222 244° Southwest  Level Estimated
08:01AM 65.3700 31.3070 244° Southwest 423 487 36,000  Level FlightAware
08:01AM 65.3370 31.1750 239° Southwest 422 486 36,000  Level FlightAware
08:02AM 65.2970 31.0160 239° Southwest 420 483 36,000  Level FlightAware
08:03AM 65.2560 30.8540 239° Southwest 420 483 36,000  Level FlightAware
08:03AM 65.2170 30.7000 239° Southwest 420 483 36,000  Level FlightAware
08:04AM 65.1750 30.5360 239° Southwest 419 482 36,000  Level FlightAware
08:05AM 65.1350 30.3810 239° Southwest 420 483 36,000  Level FlightAware
08:05AM 65.1000 30.2470 238° Southwest 420 483 36,000  Level FlightAware
08:06AM 65.0490 30.0540 238° Southwest 420 483 36,000  Level FlightAware
08:07AM 65.0100 29.9060 238° Southwest 419 482 36,000  Level FlightAware
08:07AM 64.9650 29.7340 238° Southwest 417 480 36,000  Level FlightAware
08:08AM 64.9240 29.5820 238° Southwest 418 481 36,000  Level FlightAware
08:09AM 64.8880 29.4510 237° Southwest 420 483 36,000  Level FlightAware
08:10AM 64.8340 29.2590 237° Southwest 420 483 36,000  Level FlightAware
08:10AM 64.7910 29.1090 236° Southwest 421 484 36,000  Level FlightAware
08:11AM 64.7450 28.9470 236° Southwest 421 484 36,000  Level FlightAware
08:12AM 64.6940 28.7690 236° Southwest 421 484 36,000  Level FlightAware
08:12AM 64.6520 28.6220 236° Southwest 422 486 36,000  Level FlightAware
08:13AM 64.6030 28.4550 236° Southwest 422 486 36,000  Level FlightAware
08:14AM 64.5600 28.3080 236° Southwest 423 487 36,000  Level FlightAware
08:14AM 64.5270 28.1940 236° Southwest 423 487 36,000  Level FlightAware
08:15AM 64.4830 28.0440 236° Southwest 422 486 36,000  Level FlightAware
08:16AM 64.4320 27.8750 235° Southwest 421 484 36,000  Level FlightAware
08:16AM 64.3880 27.7260 236° Southwest 423 487 36,000  Level FlightAware
08:17AM 64.3380 27.5610 235° Southwest 423 487 36,000  Level FlightAware
08:18AM 64.2930 27.4140 235° Southwest 424 488 36,000  Level FlightAware
08:18AM 64.2470 27.2630 235° Southwest 426 490 36,000  Level FlightAware
08:19AM 64.1960 27.0990 235° Southwest 426 490 36,000  Level FlightAware
08:20AM 64.1500 26.9510 235° Southwest 423 487 36,000  Level FlightAware
08:21AM 64.0990 26.7860 235° Southwest 423 487 36,000  Level FlightAware
08:21AM 64.0560 26.6490 234° Southwest 423 487 36,000  Level FlightAware
08:22AM 64.0100 26.5040 234° Southwest 423 487 36,000  Level FlightAware
08:23AM 63.9560 26.3370 234° Southwest 425 489 36,000  Level FlightAware
08:23AM 63.9110 26.1950 234° Southwest 426 490 36,000  Level FlightAware
08:24AM 63.8590 26.0350 234° Southwest 427 491 36,000  Level FlightAware
08:25AM 63.8170 25.9050 234° Southwest 429 494 36,000  Level FlightAware
08:25AM 63.7650 25.7480 233° Southwest 429 494 36,000  Level FlightAware
08:26AM 63.7100 25.5810 233° Southwest 430 495 36,000  Level FlightAware
08:27AM 63.6570 25.4200 233° Southwest 431 496 36,000  Level FlightAware
08:28AM 63.6110 25.2840 233° Southwest 432 497 36,000  Level FlightAware
08:29AM 63.5330 25.0510 233° Southwest 433 498 36,000  Level FlightAware
08:31AM 63.4173 24.6048 240° Southwest  Level Estimated
08:32AM 63.3553 24.3693 240° Southwest  Level Estimated
08:32AM 63.3010 24.3780 240° Southwest 429 494 36,000  Level FlightAware
08:35AM 63.1315 23.7436 240° Southwest  Level Estimated
08:35AM 63.0480 23.6640 240° Southwest 430 495 36,000  Level FlightAware
08:38AM 62.9027 23.1336 239° Southwest  Level Estimated
08:39AM 62.8389 22.9047 239° Southwest  Level Estimated
08:40AM 62.7747 22.6768 238° Southwest  Level Estimated
08:41AM 62.7102 22.4498 238° Southwest  Level Estimated
08:42AM 62.6453 22.2239 238° Southwest  Level Estimated
08:43AM 62.5800 21.9989 238° Southwest  Level Estimated
08:44AM 62.5144 21.7749 238° Southwest  Level Estimated
08:45AM 62.4484 21.5519 237° Southwest  Level Estimated
08:46AM 62.3821 21.3299 237° Southwest  Level Estimated
08:47AM 62.3154 21.1089 237° Southwest  Level Estimated
08:48AM 62.2484 20.8888 237° Southwest  Level Estimated
08:49AM 62.1810 20.6697 237° Southwest  Level Estimated
08:50AM 62.1133 20.4517 236° Southwest  Level Estimated
08:51AM 62.0452 20.2345 236° Southwest  Level Estimated
08:51AM 61.8030 20.4510 236° Southwest 436 502 36,000  Level FlightAware
08:52AM 61.7410 20.3030 229° Southwest 438 504 36,000  Level FlightAware
08:53AM 61.6760 20.1470 229° Southwest 439 505 36,000  Level FlightAware
08:53AM 61.6230 20.0210 229° Southwest 439 505 36,000  Level FlightAware
08:54AM 61.5670 19.8910 228° Southwest 439 505 36,000  Level FlightAware
08:55AM 61.5110 19.7510 230° Southwest 438 504 36,000  Level FlightAware
08:56AM 61.4620 19.6200 232° Southwest 437 503 36,000  Level FlightAware
08:56AM 61.4140 19.4940 232° Southwest 438 504 36,000  Level FlightAware
08:57AM 61.3540 19.3390 231° Southwest 438 504 36,000  Level FlightAware
08:58AM 61.3020 19.2030 232° Southwest 437 503 36,000  Level FlightAware
08:58AM 61.2450 19.0530 232° Southwest 440 506 36,000  Level FlightAware
08:59AM 61.1940 18.9210 231° Southwest 441 507 36,000  Level FlightAware
09:00AM 61.1380 18.7770 231° Southwest 441 507 36,000  Level FlightAware
09:00AM 61.0870 18.6450 231° Southwest 442 509 36,000  Level FlightAware
09:01AM 61.0350 18.5150 230° Southwest 441 507 36,000  Level FlightAware
09:02AM 60.9770 18.3660 231° Southwest 442 509 36,000  Level FlightAware
09:03AM 60.9250 18.2370 230° Southwest 442 509 36,000  Level FlightAware
09:03AM 60.8680 18.0940 231° Southwest 442 509 36,000  Level FlightAware
09:04AM 60.8170 17.9650 231° Southwest 441 507 36,000  Level FlightAware
09:05AM 60.7640 17.8340 230° Southwest 441 507 36,000  Level FlightAware
09:05AM 60.7040 17.6880 230° Southwest 442 509 36,000  Level FlightAware
09:06AM 60.6530 17.5620 230° Southwest 440 506 36,000  Level FlightAware
09:07AM 60.5940 17.4210 230° Southwest 440 506 36,000  Level FlightAware
09:07AM 60.5430 17.2960 230° Southwest 440 506 36,000  Level FlightAware
09:08AM 60.4900 17.1680 230° Southwest 439 505 36,000  Level FlightAware
09:09AM 60.4320 17.0290 230° Southwest 439 505 36,000  Level FlightAware
09:10AM 60.3790 16.9050 229° Southwest 439 505 36,000  Level FlightAware
09:10AM 60.3190 16.7620 230° Southwest 439 505 36,000  Level FlightAware
09:11AM 60.2650 16.6360 229° Southwest 440 506 36,000  Level FlightAware
09:12AM 60.2120 16.5120 229° Southwest 441 507 36,000  Level FlightAware
09:12AM 60.1540 16.3760 229° Southwest 442 509 36,000  Level FlightAware
09:13AM 60.0990 16.2510 229° Southwest 440 506 36,000  Level FlightAware
09:14AM 60.0460 16.1290 229° Southwest 439 505 36,000  Level FlightAware
09:14AM 59.9870 15.9950 229° Southwest 439 505 36,000  Level FlightAware
09:15AM 59.9340 15.8730 229° Southwest 439 505 36,000  Level FlightAware
09:16AM 59.8750 15.7410 228° Southwest 437 503 36,000  Level FlightAware
09:17AM 59.8210 15.6200 228° Southwest 436 502 36,000  Level FlightAware
09:17AM 59.7600 15.4820 229° Southwest 434 499 36,000  Level FlightAware
09:18AM 59.7070 15.3660 228° Southwest 434 499 36,000  Level FlightAware
09:19AM 59.6530 15.2460 228° Southwest 434 499 36,000  Level FlightAware
09:19AM 59.5940 15.1160 228° Southwest 435 501 36,000  Level FlightAware
09:20AM 59.5410 15.0000 228° Southwest 434 499 36,000  Level FlightAware
09:21AM 59.4780 14.8630 228° Southwest 434 499 36,000  Level FlightAware
09:21AM 59.4260 14.7420 230° Southwest 436 502 36,000  Level FlightAware
09:22AM 59.3790 14.6190 233° Southwest 439 505 36,000  Level FlightAware
09:23AM 59.3270 14.4780 234° Southwest 440 506 36,000  Level FlightAware
09:24AM 59.2800 14.3540 233° Southwest 440 506 36,000  Level FlightAware
09:24AM 59.2220 14.2030 233° Southwest 440 506 36,000  Level FlightAware
09:25AM 59.1730 14.0740 233° Southwest 442 509 36,000  Level FlightAware
09:26AM 59.1270 13.9540 233° Southwest 443 510 36,000  Level FlightAware
09:26AM 59.0720 13.8120 233° Southwest 445 512 36,000  Level FlightAware
09:27AM 59.0240 13.6870 233° Southwest 447 514 36,000  Level FlightAware
09:28AM 58.9660 13.5400 233° Southwest 448 516 36,000  Level FlightAware
09:28AM 58.9140 13.4080 233° Southwest 447 514 36,000  Level FlightAware
09:29AM 58.8680 13.2900 233° Southwest 446 513 36,000  Level FlightAware
09:30AM 58.8110 13.1460 233° Southwest 447 514 36,000  Level FlightAware
09:31AM 58.7610 13.0200 233° Southwest 446 513 36,000  Level FlightAware
09:31AM 58.7030 12.8770 232° Southwest 447 514 36,000  Level FlightAware
09:32AM 58.6520 12.7500 232° Southwest 446 513 36,000  Level FlightAware
09:33AM 58.6040 12.6320 232° Southwest 447 514 36,000  Level FlightAware
09:33AM 58.5440 12.4850 232° Southwest 449 517 36,000  Level FlightAware
09:34AM 58.4930 12.3600 232° Southwest 450 518 36,000  Level FlightAware
09:35AM 58.4410 12.2350 232° Southwest 451 519 36,000  Level FlightAware
09:35AM 58.3820 12.0920 232° Southwest 450 518 36,000  Level FlightAware
09:36AM 58.3300 11.9670 232° Southwest 451 519 36,000  Level FlightAware
09:37AM 58.2740 11.8330 232° Southwest 452 520 36,000  Level FlightAware
09:38AM 58.2220 11.7090 232° Southwest 451 519 36,000  Level FlightAware
09:38AM 58.1690 11.5850 231° Southwest 453 521 36,000  Level FlightAware
09:39AM 58.1110 11.4490 231° Southwest 454 522 36,000  Level FlightAware
09:40AM 58.0600 11.3290 231° Southwest 451 519 36,000  Level FlightAware
09:40AM 57.9990 11.1880 231° Southwest 451 519 36,000  Level FlightAware
09:41AM 57.9460 11.0670 230° Southwest 450 518 36,000  Level FlightAware
09:42AM 57.8870 10.9310 231° Southwest 451 519 36,000  Level FlightAware
09:42AM 57.8360 10.8150 230° Southwest 453 521 36,000  Level FlightAware
09:43AM 57.7790 10.6850 231° Southwest 453 521 36,000  Level FlightAware
09:44AM 57.7200 10.5520 230° Southwest 453 521 36,000  Level FlightAware
09:45AM 57.6670 10.4320 230° Southwest 454 522 36,000  Level FlightAware
09:45AM 57.6130 10.3120 230° Southwest 457 526 36,000  Level FlightAware
09:46AM 57.5500 10.1710 230° Southwest 457 526 36,000  Level FlightAware
09:47AM 57.4950 10.0500 230° Southwest 456 525 36,000  Level FlightAware
09:47AM 57.4340 9.9170 230° Southwest 457 526 36,000  Level FlightAware
09:48AM 57.3800 9.7980 230° Southwest 459 528 36,000  Level FlightAware
09:49AM 57.3260 9.6810 230° Southwest 459 528 36,000  Level FlightAware
09:49AM 57.2620 9.5430 229° Southwest 456 525 36,000  Level FlightAware
09:50AM 57.2070 9.4240 230° Southwest 455 524 36,000  Level FlightAware
09:51AM 57.1470 9.2950 229° Southwest 455 524 36,000  Level FlightAware
09:52AM 57.0920 9.1780 229° Southwest 455 524 36,000  Level FlightAware
09:52AM 57.0360 9.0600 229° Southwest 456 525 36,000  Level FlightAware
09:53AM 56.9730 8.9270 229° Southwest 458 527 36,000  Level FlightAware
09:54AM 56.9180 8.8120 229° Southwest 456 525 36,000  Level FlightAware
09:54AM 56.8570 8.6840 229° Southwest 454 522 36,000  Level FlightAware
09:55AM 56.8020 8.5690 229° Southwest 454 522 36,000  Level FlightAware
09:56AM 56.7460 8.4530 229° Southwest 454 522 36,000  Level FlightAware
09:56AM 56.6830 8.3250 228° Southwest 454 522 36,000  Level FlightAware
09:57AM 56.6260 8.2090 228° Southwest 454 522 36,000  Level FlightAware
09:58AM 56.5650 8.0840 228° Southwest 454 522 36,000  Level FlightAware
09:59AM 56.5100 7.9730 228° Southwest 455 524 36,000  Level FlightAware
09:59AM 56.4540 7.8590 228° Southwest 456 525 36,000  Level FlightAware
10:00AM 56.3900 7.7310 228° Southwest 455 524 36,000  Level FlightAware
10:01AM 56.3330 7.6180 228° Southwest 455 524 36,000  Level FlightAware
10:01AM 56.2610 7.4760 228° Southwest 455 524 36,000  Level FlightAware
10:02AM 56.2060 7.3680 228° Southwest 455 524 36,000  Level FlightAware
10:03AM 56.1580 7.2710 228° Southwest 457 526 36,000  Level FlightAware
10:03AM 56.1000 7.1590 227° Southwest 455 524 36,000  Level FlightAware
10:04AM 56.0430 7.0480 227° Southwest 454 522 36,000  Level FlightAware
10:05AM 55.9800 6.9270 227° Southwest 455 524 36,000  Level FlightAware
10:05AM 55.9360 6.8410 228° Southwest 455 524 36,000  Level FlightAware
10:06AM 55.8730 6.7210 227° Southwest 455 524 36,000  Level FlightAware
10:07AM 55.8150 6.6100 227° Southwest 456 525 36,000  Level FlightAware
10:07AM 55.7490 6.4840 227° Southwest 454 522 36,000  Level FlightAware
10:08AM 55.6920 6.3770 227° Southwest 455 524 36,000  Level FlightAware
10:09AM 55.6280 6.2550 227° Southwest 451 519 36,000 -1,500 Level FlightAware
10:09AM 55.5975 6.2024 227° Southwest 1 1 34,400 -2,460 Descending FlightAware UK
10:09AM 55.5723 6.1537 228° Southwest 1 1 34,500 4,560 Climbing FlightAware UK
10:10AM 55.5740 6.1560 228° Southwest 449 517 36,000  Climbing FlightAware
10:10AM 55.5296 6.0741 228° Southwest 1 1 34,500  Descending FlightAware UK
10:10AM 55.5170 6.0490 228° Southwest 448 516 36,000  Climbing FlightAware
10:11AM 55.4703 5.9621 228° Southwest 1 1 34,500  Descending FlightAware UK
10:11AM 55.4540 5.9320 228° Southwest 447 514 36,000  Climbing FlightAware
10:11AM 55.4196 5.8668 228° Southwest 1 1 34,500  Descending FlightAware UK
10:12AM 55.3990 5.8300 228° Southwest 448 516 36,000 -180 Climbing FlightAware
10:12AM 55.3592 5.7574 228° Southwest 1 1 34,400 -2,400 Descending FlightAware UK
10:12AM 55.3336 5.7102 226° Southwest 494 568 34,400 4,140 Level FlightAware UK
10:12AM 55.3330 5.7080 226° Southwest 448 516 36,000 180 Climbing FlightAware
10:13AM 55.2904 5.6320 226° Southwest 494 568 34,500  Descending FlightAware UK
10:13AM 55.2740 5.6010 226° Southwest 449 517 36,000  Climbing FlightAware
10:13AM 55.2472 5.5535 226° Southwest 490 564 34,500 -2,760 Descending FlightAware UK
10:14AM 55.2216 5.5059 227° Southwest 492 566 34,500 3,600 Level FlightAware UK
10:14AM 55.2200 5.5030 227° Southwest 452 520 36,000  Climbing FlightAware
10:14AM 55.1867 5.4433 227° Southwest 490 564 34,500 -2,580 Descending FlightAware UK
10:14AM 55.1607 5.3957 226° Southwest 498 573 34,500 3,180 Level FlightAware UK
10:14AM 55.1490 5.3740 226° Southwest 449 517 36,000  Climbing FlightAware
10:15AM 55.1169 5.3165 226° Southwest 496 571 34,500 -2,400 Descending FlightAware UK
10:15AM 55.0906 5.2689 226° Southwest 496 571 34,500 4,500 Level FlightAware UK
10:15AM 55.0910 5.2690 226° Southwest 449 517 36,000  Climbing FlightAware
10:15AM 55.0644 5.2212 226° Southwest 496 571 34,500 -2,280 Descending FlightAware UK
10:16AM 55.0295 5.1578 226° Southwest 498 573 34,500 3,720 Level FlightAware UK
10:16AM 55.0340 5.1670 226° Southwest 448 516 36,000 1,980 Climbing FlightAware
10:17AM 54.9670 5.0470 226° Southwest 444 511 36,000 -1,380 Level FlightAware
10:17AM 54.9244 4.9715 226° Southwest 496 571 34,400  Descending FlightAware UK
10:17AM 54.9130 4.9500 226° Southwest 444 511 36,000 1,800 Climbing FlightAware
10:18AM 54.8510 4.8400 226° Southwest 442 509 36,000  Level FlightAware
10:19AM 54.7860 4.7300 224° Southwest 441 507 36,000  Level FlightAware
10:19AM 54.7190 4.6430 217° Southwest 440 506 36,000  Level FlightAware
10:20AM 54.6390 4.5600 211° Southwest 448 516 36,000  Level FlightAware
10:21AM 54.5690 4.4880 211° Southwest 448 516 36,000 -1,320 Level FlightAware
10:21AM 54.5120 4.4310 211° Southwest 496 571 34,500  Descending FlightAware UK
10:21AM 54.4860 4.4030 211° Southwest 447 514 36,000 -120 Climbing FlightAware
10:22AM 54.4167 4.3321 211° Southwest 496 571 34,400 -1,740 Descending FlightAware UK
10:22AM 54.3847 4.2997 211° Southwest 496 571 34,400  Level FlightAware UK
10:23AM 54.2685 4.1806 211° Southwest 496 571 34,400  Level FlightAware UK
10:24AM 54.2262 4.1378 211° Southwest 496 571 34,400 60 Level FlightAware UK
10:24AM 54.1631 4.0732 211° Southwest 496 571 34,500  Climbing FlightAware UK
10:25AM 54.1103 4.0199 211° Southwest 494 568 34,400 -120 Descending FlightAware UK
10:25AM 54.0678 3.9775 210° Southwest 496 571 34,400  Level FlightAware UK
10:26AM 54.0362 3.9454 211° Southwest 494 568 34,400  Level FlightAware UK
10:26AM 54.0046 3.9133 211° Southwest 494 568 34,400  Level FlightAware UK
10:26AM 53.9621 3.8709 210° Southwest 496 571 34,400  Level FlightAware UK
10:27AM 53.9303 3.8391 211° Southwest 494 568 34,400  Level FlightAware UK
10:27AM 53.8986 3.8072 211° Southwest 494 568 34,400  Level FlightAware UK
10:27AM 53.8560 3.7649 210° Southwest 494 568 34,400 -300 Level FlightAware UK
10:28AM 53.8242 3.7335 210° Southwest 486 559 34,200 -1,440 Descending FlightAware UK
10:28AM 53.7820 3.6921 210° Southwest 472 543 33,400 -2,400 Descending FlightAware UK
10:29AM 53.7093 3.6208 210° Southwest 482 555 31,600 -2,400 Descending FlightAware UK
10:29AM 53.6787 3.5905 210° Southwest 478 550 31,000 -2,160 Descending FlightAware UK
10:30AM 53.6275 3.5400 210° Southwest 472 543 29,900 -1,920 Descending FlightAware UK
10:30AM 53.5976 3.5107 210° Southwest 468 539 29,500 -540 Descending FlightAware UK
10:30AM 53.5481 3.4668 208° Southwest 456 525 29,500 -180 Level FlightAware UK
10:31AM 53.5180 3.4410 207° Southwest 456 525 29,400 -120 Descending FlightAware UK
10:31AM 53.4567 3.3896 207° Southwest 462 532 29,400  Level FlightAware UK
10:32AM 53.3954 3.3371 207° Southwest 464 534 29,400 60 Level FlightAware UK
10:32AM 53.3440 3.2930 207° Southwest 468 539 29,500 120 Climbing FlightAware UK
10:33AM 53.3130 3.2662 207° Southwest 470 541 29,500  Level FlightAware UK
10:33AM 53.2604 3.2213 207° Southwest 478 550 29,500  Level FlightAware UK
10:33AM 53.2278 3.1942 206° Southwest 478 550 29,500  Level FlightAware UK
10:34AM 53.1314 3.1125 207° Southwest 482 555 29,500  Level FlightAware UK
10:36AM 52.9921 2.9951 207° Southwest 482 555 29,500  Level FlightAware UK
10:37AM 52.8316 2.8626 207° Southwest 482 555 29,500  Level FlightAware UK
10:38AM 52.7136 2.7645 207° Southwest 484 557 29,500 840 Level FlightAware UK
10:39AM 52.6550 2.7150 207° Southwest 429 494 31,000 -240 Climbing FlightAware
10:39AM 52.6173 2.6856 207° Southwest 482 555 29,300 -420 Descending FlightAware UK
10:40AM 52.5790 2.6530 207° Southwest 432 497 30,700 -480 Climbing FlightAware
10:40AM 52.5427 2.6243 207° Southwest 482 555 29,000 -2,880 Descending FlightAware UK
10:40AM 52.4998 2.5892 206° Southwest 480 552 28,800 2,640 Descending FlightAware UK
10:40AM 52.4980 2.5870 206° Southwest 424 488 30,300 1,560 Climbing FlightAware
10:41AM 52.4300 2.5310 207° Southwest 389 448 30,000 -1,500 Descending FlightAware
10:42AM 52.3650 2.4799 207° Southwest 404 465 28,400  Descending FlightAware UK
10:42AM 52.3600 2.4750 207° Southwest 350 403 30,000  Climbing FlightAware
10:42AM 52.3303 2.4531 207° Southwest 396 456 28,400 -2,700 Descending FlightAware UK
10:42AM 52.3044 2.4331 205° Southwest 396 456 28,400 4,320 Level FlightAware UK
10:42AM 52.3050 2.4320 205° Southwest 337 388 30,000  Climbing FlightAware
10:43AM 52.2617 2.3997 205° Southwest 396 456 28,400  Descending FlightAware UK
10:43AM 52.2420 2.3840 205° Southwest 343 395 30,000 120 Climbing FlightAware
10:43AM 52.2103 2.3600 205° Southwest 394 453 28,500 -2,580 Descending FlightAware UK
10:44AM 52.1842 2.3406 204° Southwest 394 453 28,500 3,720 Level FlightAware UK
10:44AM 52.1870 2.3430 204° Southwest 340 391 30,000  Climbing FlightAware
10:44AM 52.1369 2.2928 204° Southwest 394 453 28,500  Descending FlightAware UK
10:45AM 52.1250 2.2740 204° Southwest 337 388 30,000  Climbing FlightAware
10:45AM 52.1041 2.2393 204° Southwest 396 456 28,500 -2,760 Descending FlightAware UK
10:45AM 52.0850 2.2060 227° Southwest 394 453 28,500 3,600 Level FlightAware UK
10:45AM 52.0820 2.2000 227° Southwest 333 383 30,000  Climbing FlightAware
10:46AM 52.0540 2.1503 227° Southwest 392 451 28,500  Descending FlightAware UK
10:46AM 52.0470 2.1370 227° Southwest 334 384 30,000  Climbing FlightAware
10:46AM 52.0231 2.0950 227° Southwest 392 451 28,500 -2,520 Descending FlightAware UK
10:46AM 52.0044 2.0617 228° Southwest 392 451 28,500 2,580 Level FlightAware UK
10:47AM 51.9970 2.0490 228° Southwest 334 384 29,900 -1,200 Climbing FlightAware
10:47AM 51.9729 2.0060 228° Southwest 388 447 27,900 -4,440 Descending FlightAware UK
10:47AM 51.9543 1.9734 227° Southwest 384 442 27,400 2,460 Descending FlightAware UK
10:47AM 51.9510 1.9680 227° Southwest 331 381 28,900 -1,440 Climbing FlightAware
10:48AM 51.9230 1.9190 227° Southwest 382 440 26,700 -1,500 Descending FlightAware UK
10:48AM 51.9116 1.8983 227° Southwest 326 375 28,000 -1,200 Climbing FlightAware ADS-B
10:48AM 51.8928 1.8654 227° Southwest 376 433 26,100 -1,200 Descending FlightAware UK
10:48AM 51.8807 1.8439 227° Southwest 321 369 27,400 -1,200 Climbing FlightAware ADS-B
10:49AM 51.8568 1.8025 227° Southwest 368 423 25,400 -3,420 Descending FlightAware UK
10:49AM 51.8385 1.7708 227° Southwest 368 423 25,100 1,680 Descending FlightAware UK
10:49AM 51.8230 1.7440 227° Southwest 329 379 26,400 660 Climbing FlightAware
10:50AM 51.7871 1.6804 228° Southwest 328 377 25,700 -3,240 Descending FlightAware ADS-B
10:50AM 51.7706 1.6521 228° Southwest 362 417 23,800 -1,140 Descending FlightAware UK
10:51AM 51.7522 1.6103 228° Southwest 319 367 25,000 2,040 Climbing FlightAware ADS-B
10:51AM 51.7485 1.5949 249° West 317 365 24,800 -1,500 Descending FlightAware ADS-B
10:51AM 51.7432 1.5469 260° West 318 366 24,300 -1,680 Descending FlightAware ADS-B
10:52AM 51.7386 1.4757 264° West 318 366 23,400 -3,480 Descending FlightAware ADS-B
10:52AM 51.7352 1.4236 264° West 348 400 21,300 -1,740 Descending FlightAware UK
10:52AM 51.7341 1.4001 264° West 316 364 22,500 -1,620 Climbing FlightAware ADS-B
10:52AM 51.7310 1.3535 264° West 344 396 20,500 -1,680 Descending FlightAware UK
10:53AM 51.7292 1.3235 264° West 314 361 21,600 -1,620 Climbing FlightAware ADS-B
10:53AM 51.7265 1.2840 264° West 342 394 19,700 -1,380 Descending FlightAware UK
10:53AM 51.7246 1.2544 264° West 309 356 20,900 -1,440 Climbing FlightAware ADS-B
10:53AM 51.7221 1.2165 264° West 340 391 19,000 -1,380 Descending FlightAware UK
10:54AM 51.7198 1.1826 264° West 304 350 20,200 -1,020 Climbing FlightAware ADS-B
10:54AM 51.7165 1.1359 264° West 334 384 18,400 -960 Descending FlightAware UK
10:54AM 51.7149 1.1108 264° West 297 342 19,700 -1,440 Climbing FlightAware ADS-B
10:55AM 51.7121 1.0710 264° West 328 377 17,700 -1,380 Descending FlightAware UK
10:55AM 51.7103 1.0427 264° West 290 334 19,000 -1,440 Climbing FlightAware ADS-B
10:55AM 51.7077 1.0070 264° West 324 373 17,000 -1,380 Descending FlightAware UK
10:55AM 51.7057 0.9767 264° West 285 328 18,300 -1,020 Climbing FlightAware ADS-B
10:56AM 51.7032 0.9437 264° West 318 366 16,500 -600 Descending FlightAware UK
10:56AM 51.7012 0.9116 264° West 288 331 18,000  Climbing FlightAware ADS-B
10:56AM 51.6973 0.8571 264° West 300 345 16,500  Descending FlightAware UK
10:56AM 51.6964 0.8433 264° West 266 306 18,000 1,680 Climbing FlightAware ADS-B
10:57AM 51.6921 0.7826 264° West 257 296 17,600 -3,000 Descending FlightAware ADS-B
10:57AM 51.6901 0.7536 264° West 288 331 15,700 -1,380 Descending FlightAware UK
10:57AM 51.6880 0.7242 264° West 257 296 16,900 -1,200 Climbing FlightAware ADS-B
10:58AM 51.6852 0.6857 264° West 286 329 15,000 -1,200 Descending FlightAware UK
10:58AM 51.6839 0.6674 264° West 254 292 16,300 1,320 Climbing FlightAware ADS-B
10:58AM 51.6800 0.6123 264° West 255 293 15,900 -900 Descending FlightAware ADS-B
10:59AM 51.6757 0.5529 263° West 254 292 15,400 -900 Descending FlightAware ADS-B
10:59AM 51.6716 0.4961 263° West 252 290 15,000 -2,160 Descending FlightAware ADS-B
11:00AM 51.6683 0.4500 263° West 282 325 13,500  Descending FlightAware UK
11:00AM 51.6672 0.4362 263° West 254 292 15,000 2,280 Climbing FlightAware ADS-B
11:01AM 51.6631 0.3792 263° West 253 291 15,000 -2,220 Level FlightAware ADS-B
11:01AM 51.6608 0.3499 263° West 282 325 13,300 -600 Descending FlightAware UK
11:01AM 51.6586 0.3194 263° West 251 289 14,700 1,380 Climbing FlightAware ADS-B
11:02AM 51.6545 0.2640 263° West 246 283 14,400 -660 Descending FlightAware ADS-B
11:02AM 51.6500 0.2043 263° West 243 280 14,000 -660 Descending FlightAware ADS-B
11:03AM 51.6457 0.1505 263° West 239 275 13,700 -600 Descending FlightAware ADS-B
11:03AM 51.6448 0.1445 257° West 239 275 13,700 -540 Level FlightAware ADS-B
11:03AM 51.6410 0.1305 246° West 238 274 13,600 -720 Descending FlightAware ADS-B
11:03AM 51.6363 0.1195 235° Southwest 237 273 13,500 -420 Descending FlightAware ADS-B
11:03AM 51.6302 0.1086 228° Southwest 237 273 13,500 -540 Level FlightAware ADS-B
11:03AM 51.6167 0.0930 216° Southwest 243 280 13,300 -600 Descending FlightAware ADS-B
11:03AM 51.6112 0.0890 204° Southwest 248 285 13,300 -720 Level FlightAware ADS-B
11:03AM 51.6069 0.0869 197° South 251 289 13,200 -600 Descending FlightAware ADS-B
11:04AM 51.5996 0.0848 190° South 254 292 13,200 -420 Level FlightAware ADS-B
11:04AM 51.5888 0.0853 179° South 259 298 13,100 -660 Descending FlightAware ADS-B
11:04AM 51.5766 0.0906 165° South 265 305 13,000 -840 Descending FlightAware ADS-B
11:04AM 51.5716 0.0943 155° Southeast 270 311 12,900 -1,020 Descending FlightAware ADS-B
11:04AM 51.5639 0.1029 145° Southeast 277 319 12,800 -780 Descending FlightAware ADS-B
11:04AM 51.5559 0.1168 133° Southeast 286 329 12,700 -420 Descending FlightAware ADS-B
11:04AM 51.5515 0.1282 122° Southeast 292 336 12,700 -540 Level FlightAware ADS-B
11:04AM 51.5484 0.1405 112° Southeast 298 343 12,600 -900 Descending FlightAware ADS-B
11:05AM 51.5463 0.1578 101° East 302 348 12,500 -420 Descending FlightAware ADS-B
11:05AM 51.5465 0.1758 89° East 306 352 12,500 -480 Level FlightAware ADS-B
11:05AM 51.5511 0.2479 84° East 309 356 12,200 -600 Descending FlightAware ADS-B
11:06AM 51.5561 0.2952 80° East 310 357 12,000 -360 Descending FlightAware ADS-B
11:06AM 51.5660 0.3204 58° Northeast 308 354 12,000  Level FlightAware ADS-B
11:06AM 51.5710 0.3282 44° Northeast 308 354 12,000  Level FlightAware ADS-B
11:06AM 51.5780 0.3363 36° Northeast 305 351 12,000  Level FlightAware ADS-B
11:06AM 51.5852 0.3421 27° Northeast 300 345 12,000  Level FlightAware ADS-B
11:06AM 51.5927 0.3460 18° North 297 342 12,000 -360 Level FlightAware ADS-B
11:06AM 51.6076 0.3477 North 283 326 11,900 -720 Descending FlightAware ADS-B
11:07AM 51.6156 0.3454 350° North 275 316 11,800 -420 Descending FlightAware ADS-B
11:07AM 51.6248 0.3397 339° North 265 305 11,800 -480 Level FlightAware ADS-B
11:07AM 51.6309 0.3339 329° Northwest 261 300 11,700 -600 Descending FlightAware ADS-B
11:07AM 51.6352 0.3284 322° Northwest 258 297 11,700 -600 Level FlightAware ADS-B
11:07AM 51.6405 0.3197 314° West 252 290 11,600 -960 Descending FlightAware ADS-B
11:07AM 51.6448 0.3101 306° West 246 283 11,500 -480 Descending FlightAware ADS-B
11:07AM 51.6481 0.2999 297° West 241 277 11,500 -720 Level FlightAware ADS-B
11:07AM 51.6516 0.2801 286° West 232 267 11,300 -660 Descending FlightAware ADS-B
11:07AM 51.6522 0.2690 275° West 230 265 11,300 -420 Level FlightAware ADS-B
11:08AM 51.6503 0.2290 266° West 227 261 11,100 -480 Descending FlightAware ADS-B
11:08AM 51.6499 0.1972 269° West 224 258 11,000 -120 Descending FlightAware ADS-B
11:09AM 51.6467 0.1473 264° West 222 255 11,000  Level FlightAware ADS-B
11:09AM 51.6452 0.1390 254° West 227 261 11,000  Level FlightAware ADS-B
11:09AM 51.6428 0.1313 243° Southwest 226 260 11,000  Level FlightAware ADS-B
11:09AM 51.6313 0.1095 230° Southwest 224 258 11,000  Level FlightAware ADS-B
11:09AM 51.6272 0.1039 220° Southwest 226 260 11,000  Level FlightAware ADS-B
11:09AM 51.6140 0.0923 209° Southwest 232 267 11,000 -300 Level FlightAware ADS-B
11:10AM 51.6048 0.0886 194° South 237 273 10,900 -720 Descending FlightAware ADS-B
11:10AM 51.5962 0.0878 183° South 242 278 10,800 -960 Descending FlightAware ADS-B
11:10AM 51.5907 0.0887 174° South 245 282 10,700 -600 Descending FlightAware ADS-B
11:10AM 51.5841 0.0912 167° South 250 288 10,700 -600 Level FlightAware ADS-B
11:10AM 51.5791 0.0943 159° South 254 292 10,600 -840 Descending FlightAware ADS-B
11:10AM 51.5685 0.1047 148° Southeast 262 302 10,500 -420 Descending FlightAware ADS-B
11:10AM 51.5641 0.1113 137° Southeast 267 307 10,500 -540 Level FlightAware ADS-B
11:10AM 51.5586 0.1228 128° Southeast 274 315 10,400 -480 Descending FlightAware ADS-B
11:10AM 51.5551 0.1337 117° Southeast 281 323 10,400 -720 Level FlightAware ADS-B
11:11AM 51.5513 0.1595 103° East 294 338 10,200 -600 Descending FlightAware ADS-B
11:11AM 51.5517 0.1772 88° East 299 344 10,200 -360 Level FlightAware ADS-B
11:11AM 51.5558 0.2444 84° East 297 342 10,000 -2,460 Descending FlightAware ADS-B
11:12AM 51.5585 0.2803 84° East 264 304 8,300 -720 Descending FlightAware UK
11:12AM 51.5638 0.2977 84° East 304 350 9,700 6,420 Climbing FlightAware ADS-B
11:12AM 51.5668 0.3050 57° Northeast 305 351 9,700 -420 Level FlightAware ADS-B
11:12AM 51.5792 0.3239 43° Northeast 301 346 9,600 -600 Descending FlightAware ADS-B
11:12AM 51.5890 0.3319 27° Northeast 295 339 9,500 -600 Descending FlightAware ADS-B
11:12AM 51.5928 0.3339 18° North 292 336 9,500 -780 Level FlightAware ADS-B
11:12AM 51.5992 0.3359 11° North 289 333 9,400 -780 Descending FlightAware ADS-B
11:12AM 51.6134 0.3354 359° North 278 320 9,300 -360 Descending FlightAware ADS-B
11:13AM 51.6213 0.3320 345° North 270 311 9,300 -480 Level FlightAware ADS-B
11:13AM 51.6285 0.3267 335° Northwest 264 304 9,200 -840 Descending FlightAware ADS-B
11:13AM 51.6362 0.3177 324° Northwest 259 298 9,100 -720 Descending FlightAware ADS-B
11:13AM 51.6430 0.3051 311° West 236 272 9,000 -480 Descending FlightAware ADS-B
11:13AM 51.6455 0.2987 302° West 229 264 9,000  Level FlightAware ADS-B
11:13AM 51.6481 0.2895 294° West 225 259 9,000  Level FlightAware ADS-B
11:13AM 51.6494 0.2833 289° West 222 255 9,000  Level FlightAware ADS-B
11:13AM 51.6506 0.2754 284° West 220 253 9,000  Level FlightAware ADS-B
11:13AM 51.6511 0.2704 279° West 218 251 9,000  Level FlightAware ADS-B
11:13AM 51.6515 0.2590 273° West 217 250 9,000  Level FlightAware ADS-B
11:13AM 51.6514 0.2537 268° West 216 249 9,000  Level FlightAware ADS-B
11:14AM 51.6508 0.2459 263° West 216 249 9,000  Level FlightAware ADS-B
11:14AM 51.6497 0.2344 261° West 218 251 9,000  Level FlightAware ADS-B
11:14AM 51.6495 0.2287 267° West 222 255 9,000  Level FlightAware ADS-B
11:14AM 51.6495 0.2210 270° West 224 258 9,000  Level FlightAware ADS-B
11:14AM 51.6498 0.2072 272° West 219 252 9,000  Level FlightAware ADS-B
11:14AM 51.6497 0.1996 269° West 216 249 9,000  Level FlightAware ADS-B
11:14AM 51.6488 0.1754 267° West 212 244 9,000  Level FlightAware ADS-B
11:14AM 51.6479 0.1575 265° West 218 251 9,000  Level FlightAware ADS-B
11:15AM 51.6476 0.1337 269° West 215 247 9,000  Level FlightAware ADS-B
11:15AM 51.6476 0.1094 270° West 215 247 9,000 -240 Level FlightAware ADS-B
11:15AM 51.6472 0.0821 269° West 213 245 8,900 -660 Descending FlightAware ADS-B
11:15AM 51.6470 0.0658 269° West 213 245 8,700 -1,080 Descending FlightAware ADS-B
11:16AM 51.6468 0.0383 269° West 216 249 8,400 -960 Descending FlightAware ADS-B
11:16AM 51.6466 0.0130 269° West 211 243 8,200 -780 Descending FlightAware ADS-B
11:16AM 51.6464 -0.0116 269° West 208 239 8,000 -420 Descending FlightAware ADS-B
11:17AM 51.6463 -0.0353 270° West 212 244 8,000  Level FlightAware ADS-B
11:17AM 51.6460 -0.0439 267° West 212 244 8,000  Level FlightAware ADS-B
11:17AM 51.6453 -0.0499 259° West 208 239 8,000  Level FlightAware ADS-B
11:17AM 51.6432 -0.0587 249° West 205 236 8,000  Level FlightAware ADS-B
11:17AM 51.6380 -0.0693 232° Southwest 199 229 8,000  Level FlightAware ADS-B
11:17AM 51.6342 -0.0733 214° Southwest 199 229 8,000  Level FlightAware ADS-B
11:17AM 51.6275 -0.0772 200° South 212 244 8,000  Level FlightAware ADS-B
11:17AM 51.6242 -0.0779 187° South 219 252 8,000  Level FlightAware ADS-B
11:17AM 51.6172 -0.0775 178° South 228 262 8,000  Level FlightAware ADS-B
11:17AM 51.6129 -0.0759 167° South 235 270 8,000  Level FlightAware ADS-B
11:17AM 51.6078 -0.0726 158° South 242 278 8,000 -480 Level FlightAware ADS-B
11:18AM 51.6000 -0.0644 147° Southeast 259 298 7,900 -960 Descending FlightAware ADS-B
11:18AM 51.5963 -0.0590 138° Southeast 267 307 7,800 -1,800 Descending FlightAware ADS-B
11:18AM 51.5826 -0.0359 134° Southeast 274 315 7,300 -1,620 Descending FlightAware ADS-B
11:18AM 51.5754 -0.0264 140° Southeast 262 302 7,200 -540 Descending FlightAware ADS-B
11:18AM 51.5711 -0.0224 150° Southeast 253 291 7,200  Level FlightAware ADS-B
11:18AM 51.5666 -0.0193 157° South 243 280 7,200 -540 Level FlightAware ADS-B
11:18AM 51.5590 -0.0156 163° South 231 266 7,100 -540 Descending FlightAware ADS-B
11:19AM 51.5430 -0.0092 166° South 217 250 7,000 -660 Descending FlightAware ADS-B
11:19AM 51.5308 -0.0047 167° South 205 236 6,800 -540 Descending FlightAware ADS-B
11:19AM 51.5204 -0.0011 168° South 190 219 6,800 -420 Level FlightAware ADS-B
11:19AM 51.5167 -0.0005 174° South 181 208 6,700 -600 Descending FlightAware ADS-B
11:19AM 51.5116 -0.0013 186° South 169 194 6,700 -540 Level FlightAware ADS-B
11:19AM 51.5077 -0.0042 204° Southwest 155 178 6,600 -1,140 Descending FlightAware ADS-B
11:19AM 51.5053 -0.0073 220° Southwest 154 177 6,500 -780 Descending FlightAware ADS-B
11:19AM 51.5038 -0.0102 230° Southwest 152 175 6,500 -900 Level FlightAware ADS-B
11:19AM 51.5023 -0.0137 235° Southwest 152 175 6,400 -1,380 Descending FlightAware ADS-B
11:20AM 51.5008 -0.0185 244° Southwest 151 174 6,300 -1,500 Descending FlightAware ADS-B
11:20AM 51.4979 -0.0298 248° West 151 174 6,000 -2,100 Descending FlightAware ADS-B
11:20AM 51.4939 -0.0460 248° West 153 176 5,400 -2,160 Descending FlightAware ADS-B
11:20AM 51.4906 -0.0594 248° West 153 176 5,000 -1,620 Descending FlightAware ADS-B
11:20AM 51.4870 -0.0739 248° West 155 178 4,700 -1,500 Descending FlightAware ADS-B
11:21AM 51.4826 -0.0903 247° West 153 176 4,300 -1,320 Descending FlightAware ADS-B
11:21AM 51.4807 -0.0972 246° West 155 178 4,200 -1,320 Descending FlightAware ADS-B
11:21AM 51.4774 -0.1102 248° West 156 180 3,900 -1,080 Descending FlightAware ADS-B
11:21AM 51.4743 -0.1223 248° West 159 183 3,800 -960 Descending FlightAware ADS-B
11:21AM 51.4720 -0.1310 247° West 157 181 3,600 -840 Descending FlightAware ADS-B
11:21AM 51.4702 -0.1377 247° West 156 180 3,600 -600 Level FlightAware ADS-B
11:22AM 51.4663 -0.1547 250° West 157 181 3,400 -660 Descending FlightAware ADS-B
11:22AM 51.4651 -0.1706 263° West 162 186 3,300 -300 Descending FlightAware ADS-B
11:22AM 51.4652 -0.1812 271° West 165 190 3,300 -360 Level FlightAware ADS-B
11:22AM 51.4653 -0.1934 271° West 164 189 3,200 -720 Descending FlightAware ADS-B
11:22AM 51.4654 -0.2132 270° West 163 188 3,000 -3,660 Descending FlightAware ADS-B
11:23AM 51.4655 -0.2331 270° West 194 223 1,200 -3,720 Descending FlightAware UK
11:23AM 51.4654 -0.2553 270° West 194 223 900 -1,020 Descending FlightAware UK
11:23AM 51.4653 -0.2776 270° West 180 207 600 2,460 Descending FlightAware UK
11:24AM 51.4650 -0.2870 270° West 158 182 2,100 1,980 Climbing FlightAware
11:24AM 51.4650 -0.3160 270° West 148 170 1,800 -780 Descending FlightAware
11:24AM 51.4650 -0.3480 270° West 139 160 1,400 -900 Descending FlightAware
11:25AM 51.4650 -0.3750 270° West 139 160 1,000 -600 Descending FlightAware
11:26AM 51.4650 -0.4480 270° West 139 160 400 -480 Descending FlightAware